sensor_id;sensor_type;location;lat;lon;timestamp;temperature;humidity
2260;DHT22;333;48.800;9.530;2023-11-21T00:00:15;8.40;99.60
2260;DHT22;333;48.800;9.530;2023-11-21T00:02:43;8.40;99.60
2260;DHT22;333;48.800;9.530;2023-11-21T00:05:12;8.40;99.60
2260;DHT22;333;48.800;9.530;2023-11-21T00:07:40;8.40;99.60
2260;DHT22;333;48.800;9.530;2023-11-21T00:10:10;8.40;99.60
2260;DHT22;333;48.800;9.530;2023-11-21T00:12:39;8.30;99.60
2260;DHT22;333;48.800;9.530;2023-11-21T00:15:08;8.20;99.60
2260;DHT22;333;48.800;9.530;2023-11-21T00:17:36;8.10;99.60
2260;DHT22;333;48.800;9.530;2023-11-21T00:20:05;8.20;99.60
2260;DHT22;333;48.800;9.530;2023-11-21T00:22:33;8.20;99.60
2260;DHT22;333;48.800;9.530;2023-11-21T00:25:00;8.30;99.60
2260;DHT22;333;48.800;9.530;2023-11-21T00:27:30;8.40;99.60
2260;DHT22;333;48.800;9.530;2023-11-21T00:29:57;8.30;99.60
2260;DHT22;333;48.800;9.530;2023-11-21T00:32:24;8.40;99.60
2260;DHT22;333;48.800;9.530;2023-11-21T00:34:51;8.40;99.60
2260;DHT22;333;48.800;9.530;2023-11-21T00:37:18;8.40;99.60
2260;DHT22;333;48.800;9.530;2023-11-21T00:39:45;8.40;99.60
2260;DHT22;333;48.800;9.530;2023-11-21T00:42:12;8.40;99.60
2260;DHT22;333;48.800;9.530;2023-11-21T00:44:40;8.50;99.60
2260;DHT22;333;48.800;9.530;2023-11-21T00:47:07;8.50;99.60
2260;DHT22;333;48.800;9.530;2023-11-21T00:49:34;8.40;99.60
2260;DHT22;333;48.800;9.530;2023-11-21T00:52:01;8.40;99.60
2260;DHT22;333;48.800;9.530;2023-11-21T00:54:28;8.40;99.60
2260;DHT22;333;48.800;9.530;2023-11-21T00:56:56;8.40;99.60
2260;DHT22;333;48.800;9.530;2023-11-21T00:59:23;8.30;99.60
2260;DHT22;333;48.800;9.530;2023-11-21T01:01:51;8.30;99.60
2260;DHT22;333;48.800;9.530;2023-11-21T01:04:21;8.40;99.60
2260;DHT22;333;48.800;9.530;2023-11-21T01:06:48;8.50;99.60
2260;DHT22;333;48.800;9.530;2023-11-21T01:09:15;8.40;99.60
2260;DHT22;333;48.800;9.530;2023-11-21T01:11:44;8.50;99.60
2260;DHT22;333;48.800;9.530;2023-11-21T01:14:12;8.50;99.60
2260;DHT22;333;48.800;9.530;2023-11-21T01:16:39;8.60;99.60
2260;DHT22;333;48.800;9.530;2023-11-21T01:19:07;8.50;99.60
2260;DHT22;333;48.800;9.530;2023-11-21T01:21:34;8.50;99.60
2260;DHT22;333;48.800;9.530;2023-11-21T01:24:02;8.40;99.60
2260;DHT22;333;48.800;9.530;2023-11-21T01:26:31;8.40;99.60
2260;DHT22;333;48.800;9.530;2023-11-21T01:28:58;8.40;99.60
2260;DHT22;333;48.800;9.530;2023-11-21T01:31:25;8.40;99.60
2260;DHT22;333;48.800;9.530;2023-11-21T01:33:54;8.50;99.60
2260;DHT22;333;48.800;9.530;2023-11-21T01:36:23;8.50;99.60
2260;DHT22;333;48.800;9.530;2023-11-21T01:38:57;8.40;99.60
2260;DHT22;333;48.800;9.530;2023-11-21T01:41:25;8.40;99.60
2260;DHT22;333;48.800;9.530;2023-11-21T01:43:52;8.50;99.60
2260;DHT22;333;48.800;9.530;2023-11-21T01:46:20;8.50;99.60
2260;DHT22;333;48.800;9.530;2023-11-21T01:48:49;8.50;99.60
2260;DHT22;333;48.800;9.530;2023-11-21T01:51:16;8.60;99.60
2260;DHT22;333;48.800;9.530;2023-11-21T01:53:46;8.60;99.60
2260;DHT22;333;48.800;9.530;2023-11-21T01:56:14;8.60;99.60
2260;DHT22;333;48.800;9.530;2023-11-21T01:58:42;8.70;99.60
2260;DHT22;333;48.800;9.530;2023-11-21T02:01:10;8.70;99.60
2260;DHT22;333;48.800;9.530;2023-11-21T02:03:37;8.70;99.60
2260;DHT22;333;48.800;9.530;2023-11-21T02:06:05;8.70;99.60
2260;DHT22;333;48.800;9.530;2023-11-21T02:08:32;8.70;99.60
2260;DHT22;333;48.800;9.530;2023-11-21T02:11:05;8.70;99.60
2260;DHT22;333;48.800;9.530;2023-11-21T02:13:32;8.60;99.60
2260;DHT22;333;48.800;9.530;2023-11-21T02:15:59;8.60;99.60
2260;DHT22;333;48.800;9.530;2023-11-21T02:18:26;8.50;99.60
2260;DHT22;333;48.800;9.530;2023-11-21T02:20:55;8.40;99.60
2260;DHT22;333;48.800;9.530;2023-11-21T02:23:23;8.30;99.60
2260;DHT22;333;48.800;9.530;2023-11-21T02:25:54;8.30;99.60
2260;DHT22;333;48.800;9.530;2023-11-21T02:28:25;8.30;99.60
2260;DHT22;333;48.800;9.530;2023-11-21T02:30:52;8.30;99.60
2260;DHT22;333;48.800;9.530;2023-11-21T02:33:21;8.30;99.60
2260;DHT22;333;48.800;9.530;2023-11-21T02:35:48;8.20;99.60
2260;DHT22;333;48.800;9.530;2023-11-21T02:38:17;8.50;99.60
2260;DHT22;333;48.800;9.530;2023-11-21T02:40:45;8.50;99.60
2260;DHT22;333;48.800;9.530;2023-11-21T02:43:12;8.50;99.60
2260;DHT22;333;48.800;9.530;2023-11-21T02:45:39;8.50;99.60
2260;DHT22;333;48.800;9.530;2023-11-21T02:48:07;8.60;99.60
2260;DHT22;333;48.800;9.530;2023-11-21T02:50:34;8.40;99.60
2260;DHT22;333;48.800;9.530;2023-11-21T02:53:03;8.40;99.60
2260;DHT22;333;48.800;9.530;2023-11-21T02:55:31;8.40;99.60
2260;DHT22;333;48.800;9.530;2023-11-21T02:58:02;8.40;99.60
2260;DHT22;333;48.800;9.530;2023-11-21T03:00:29;8.50;99.60
2260;DHT22;333;48.800;9.530;2023-11-21T03:02:56;8.50;99.60
2260;DHT22;333;48.800;9.530;2023-11-21T03:05:24;8.50;99.60
2260;DHT22;333;48.800;9.530;2023-11-21T03:07:51;8.40;99.60
2260;DHT22;333;48.800;9.530;2023-11-21T03:10:18;8.40;99.60
2260;DHT22;333;48.800;9.530;2023-11-21T03:12:45;8.50;99.60
2260;DHT22;333;48.800;9.530;2023-11-21T03:15:13;8.50;99.60
2260;DHT22;333;48.800;9.530;2023-11-21T03:17:40;8.60;99.60
2260;DHT22;333;48.800;9.530;2023-11-21T03:20:08;8.70;99.60
2260;DHT22;333;48.800;9.530;2023-11-21T03:22:36;8.60;99.60
2260;DHT22;333;48.800;9.530;2023-11-21T03:25:04;8.80;99.60
2260;DHT22;333;48.800;9.530;2023-11-21T03:27:31;8.70;99.60
2260;DHT22;333;48.800;9.530;2023-11-21T03:29:58;8.70;99.60
2260;DHT22;333;48.800;9.530;2023-11-21T03:32:27;8.70;99.60
2260;DHT22;333;48.800;9.530;2023-11-21T03:34:57;8.60;99.60
2260;DHT22;333;48.800;9.530;2023-11-21T03:37:24;8.40;99.60
2260;DHT22;333;48.800;9.530;2023-11-21T03:39:53;8.40;99.60
2260;DHT22;333;48.800;9.530;2023-11-21T03:42:21;8.40;99.60
2260;DHT22;333;48.800;9.530;2023-11-21T03:44:48;8.50;99.60
2260;DHT22;333;48.800;9.530;2023-11-21T03:47:15;8.50;99.60
2260;DHT22;333;48.800;9.530;2023-11-21T03:49:45;8.60;99.60
2260;DHT22;333;48.800;9.530;2023-11-21T03:52:12;8.60;99.60
2260;DHT22;333;48.800;9.530;2023-11-21T03:54:39;8.50;99.60
2260;DHT22;333;48.800;9.530;2023-11-21T03:57:06;8.50;99.60
2260;DHT22;333;48.800;9.530;2023-11-21T03:59:35;8.50;99.60
2260;DHT22;333;48.800;9.530;2023-11-21T04:02:02;8.40;99.60
2260;DHT22;333;48.800;9.530;2023-11-21T04:04:29;8.40;99.60
2260;DHT22;333;48.800;9.530;2023-11-21T04:06:57;8.40;99.60
2260;DHT22;333;48.800;9.530;2023-11-21T04:09:25;8.50;99.60
2260;DHT22;333;48.800;9.530;2023-11-21T04:11:52;8.50;99.60
2260;DHT22;333;48.800;9.530;2023-11-21T04:14:19;8.50;99.60
2260;DHT22;333;48.800;9.530;2023-11-21T04:16:47;8.50;99.60
2260;DHT22;333;48.800;9.530;2023-11-21T04:19:15;8.50;99.60
2260;DHT22;333;48.800;9.530;2023-11-21T04:21:43;8.40;99.60
2260;DHT22;333;48.800;9.530;2023-11-21T04:24:11;8.30;99.60
2260;DHT22;333;48.800;9.530;2023-11-21T04:26:38;8.30;99.60
2260;DHT22;333;48.800;9.530;2023-11-21T04:29:06;8.30;99.60
2260;DHT22;333;48.800;9.530;2023-11-21T04:31:33;8.40;99.60
2260;DHT22;333;48.800;9.530;2023-11-21T04:34:00;8.50;99.60
2260;DHT22;333;48.800;9.530;2023-11-21T04:36:29;8.60;99.60
2260;DHT22;333;48.800;9.530;2023-11-21T04:38:57;8.50;99.60
2260;DHT22;333;48.800;9.530;2023-11-21T04:41:27;8.50;99.60
2260;DHT22;333;48.800;9.530;2023-11-21T04:43:54;8.40;99.60
2260;DHT22;333;48.800;9.530;2023-11-21T04:46:21;8.40;99.60
2260;DHT22;333;48.800;9.530;2023-11-21T04:48:48;8.40;99.60
2260;DHT22;333;48.800;9.530;2023-11-21T04:51:15;8.40;99.60
2260;DHT22;333;48.800;9.530;2023-11-21T04:53:43;8.40;99.60
2260;DHT22;333;48.800;9.530;2023-11-21T04:56:10;8.50;99.60
2260;DHT22;333;48.800;9.530;2023-11-21T04:58:38;8.50;99.60
2260;DHT22;333;48.800;9.530;2023-11-21T05:01:08;8.50;99.60
2260;DHT22;333;48.800;9.530;2023-11-21T05:03:35;8.60;99.60
2260;DHT22;333;48.800;9.530;2023-11-21T05:06:04;8.60;99.60
2260;DHT22;333;48.800;9.530;2023-11-21T05:08:31;8.60;99.60
2260;DHT22;333;48.800;9.530;2023-11-21T05:10:59;8.50;99.60
2260;DHT22;333;48.800;9.530;2023-11-21T05:13:26;8.50;99.60
2260;DHT22;333;48.800;9.530;2023-11-21T05:15:55;8.40;99.60
2260;DHT22;333;48.800;9.530;2023-11-21T05:18:23;8.40;99.60
2260;DHT22;333;48.800;9.530;2023-11-21T05:20:52;8.30;99.60
2260;DHT22;333;48.800;9.530;2023-11-21T05:23:19;8.40;99.60
2260;DHT22;333;48.800;9.530;2023-11-21T05:25:47;8.40;99.60
2260;DHT22;333;48.800;9.530;2023-11-21T05:28:14;8.30;99.60
2260;DHT22;333;48.800;9.530;2023-11-21T05:30:40;8.20;99.60
2260;DHT22;333;48.800;9.530;2023-11-21T05:33:09;8.20;99.60
2260;DHT22;333;48.800;9.530;2023-11-21T05:35:37;8.20;99.60
2260;DHT22;333;48.800;9.530;2023-11-21T05:38:04;8.20;99.60
2260;DHT22;333;48.800;9.530;2023-11-21T05:40:32;8.40;99.60
2260;DHT22;333;48.800;9.530;2023-11-21T05:43:00;8.40;99.60
2260;DHT22;333;48.800;9.530;2023-11-21T05:45:27;8.20;99.60
2260;DHT22;333;48.800;9.530;2023-11-21T05:47:55;8.10;99.60
2260;DHT22;333;48.800;9.530;2023-11-21T05:50:24;8.30;99.60
2260;DHT22;333;48.800;9.530;2023-11-21T05:52:51;8.30;99.60
2260;DHT22;333;48.800;9.530;2023-11-21T05:55:18;8.20;99.60
2260;DHT22;333;48.800;9.530;2023-11-21T05:57:46;8.20;99.60
2260;DHT22;333;48.800;9.530;2023-11-21T06:00:16;8.30;99.60
2260;DHT22;333;48.800;9.530;2023-11-21T06:02:46;8.20;99.60
2260;DHT22;333;48.800;9.530;2023-11-21T06:05:13;8.50;99.60
2260;DHT22;333;48.800;9.530;2023-11-21T06:07:41;8.40;99.60
2260;DHT22;333;48.800;9.530;2023-11-21T06:10:10;8.30;99.60
2260;DHT22;333;48.800;9.530;2023-11-21T06:12:38;8.30;99.60
2260;DHT22;333;48.800;9.530;2023-11-21T06:15:10;8.20;99.60
2260;DHT22;333;48.800;9.530;2023-11-21T06:17:39;8.40;99.60
2260;DHT22;333;48.800;9.530;2023-11-21T06:20:08;8.40;99.60
2260;DHT22;333;48.800;9.530;2023-11-21T06:22:37;8.30;99.60
2260;DHT22;333;48.800;9.530;2023-11-21T06:25:07;8.20;99.60
2260;DHT22;333;48.800;9.530;2023-11-21T06:27:36;8.40;99.60
2260;DHT22;333;48.800;9.530;2023-11-21T06:30:05;8.40;99.60
2260;DHT22;333;48.800;9.530;2023-11-21T06:32:32;8.30;99.60
2260;DHT22;333;48.800;9.530;2023-11-21T06:35:00;8.20;99.60
2260;DHT22;333;48.800;9.530;2023-11-21T06:37:27;8.10;99.60
2260;DHT22;333;48.800;9.530;2023-11-21T06:39:55;8.30;99.60
2260;DHT22;333;48.800;9.530;2023-11-21T06:42:27;8.40;99.60
2260;DHT22;333;48.800;9.530;2023-11-21T06:44:55;8.40;99.60
2260;DHT22;333;48.800;9.530;2023-11-21T06:47:24;8.30;99.60
2260;DHT22;333;48.800;9.530;2023-11-21T06:49:52;8.30;99.60
2260;DHT22;333;48.800;9.530;2023-11-21T06:52:19;8.20;99.60
2260;DHT22;333;48.800;9.530;2023-11-21T06:54:47;8.20;99.60
2260;DHT22;333;48.800;9.530;2023-11-21T06:57:15;8.30;99.60
2260;DHT22;333;48.800;9.530;2023-11-21T06:59:44;8.30;99.60
2260;DHT22;333;48.800;9.530;2023-11-21T07:02:11;8.30;99.60
2260;DHT22;333;48.800;9.530;2023-11-21T07:04:38;8.40;99.60
2260;DHT22;333;48.800;9.530;2023-11-21T07:07:06;8.40;99.60
2260;DHT22;333;48.800;9.530;2023-11-21T07:09:34;8.50;99.60
2260;DHT22;333;48.800;9.530;2023-11-21T07:12:01;8.50;99.60
2260;DHT22;333;48.800;9.530;2023-11-21T07:14:31;8.40;99.60
2260;DHT22;333;48.800;9.530;2023-11-21T07:17:00;8.40;99.60
2260;DHT22;333;48.800;9.530;2023-11-21T07:19:27;8.30;99.60
2260;DHT22;333;48.800;9.530;2023-11-21T07:21:54;8.30;99.60
2260;DHT22;333;48.800;9.530;2023-11-21T07:24:24;8.30;99.60
2260;DHT22;333;48.800;9.530;2023-11-21T07:26:51;8.30;99.60
2260;DHT22;333;48.800;9.530;2023-11-21T07:29:23;8.40;99.60
2260;DHT22;333;48.800;9.530;2023-11-21T07:31:51;8.60;99.60
2260;DHT22;333;48.800;9.530;2023-11-21T07:34:19;8.80;99.60
2260;DHT22;333;48.800;9.530;2023-11-21T07:36:46;8.90;99.60
2260;DHT22;333;48.800;9.530;2023-11-21T07:39:13;8.80;99.60
2260;DHT22;333;48.800;9.530;2023-11-21T07:41:41;8.70;99.60
2260;DHT22;333;48.800;9.530;2023-11-21T07:44:15;8.80;99.60
2260;DHT22;333;48.800;9.530;2023-11-21T07:46:43;8.80;99.60
2260;DHT22;333;48.800;9.530;2023-11-21T07:49:11;8.70;99.60
2260;DHT22;333;48.800;9.530;2023-11-21T07:51:43;8.60;99.60
2260;DHT22;333;48.800;9.530;2023-11-21T07:54:10;8.60;99.60
2260;DHT22;333;48.800;9.530;2023-11-21T07:56:37;8.80;99.60
2260;DHT22;333;48.800;9.530;2023-11-21T07:59:04;8.80;99.60
2260;DHT22;333;48.800;9.530;2023-11-21T08:01:31;8.90;99.60
2260;DHT22;333;48.800;9.530;2023-11-21T08:03:58;8.90;99.60
2260;DHT22;333;48.800;9.530;2023-11-21T08:06:29;9.00;99.60
2260;DHT22;333;48.800;9.530;2023-11-21T08:08:59;9.10;99.60
2260;DHT22;333;48.800;9.530;2023-11-21T08:11:27;9.00;99.60
2260;DHT22;333;48.800;9.530;2023-11-21T08:13:55;9.00;99.60
2260;DHT22;333;48.800;9.530;2023-11-21T08:16:22;9.10;99.60
2260;DHT22;333;48.800;9.530;2023-11-21T08:18:49;9.20;99.60
2260;DHT22;333;48.800;9.530;2023-11-21T08:21:16;9.30;99.60
2260;DHT22;333;48.800;9.530;2023-11-21T08:23:44;9.10;99.60
2260;DHT22;333;48.800;9.530;2023-11-21T08:26:15;9.20;99.60
2260;DHT22;333;48.800;9.530;2023-11-21T08:28:42;9.10;99.60
2260;DHT22;333;48.800;9.530;2023-11-21T08:31:09;9.00;99.60
2260;DHT22;333;48.800;9.530;2023-11-21T08:33:36;9.20;99.60
2260;DHT22;333;48.800;9.530;2023-11-21T08:36:07;9.10;99.60
2260;DHT22;333;48.800;9.530;2023-11-21T08:38:34;9.10;99.60
2260;DHT22;333;48.800;9.530;2023-11-21T08:41:04;9.00;99.60
2260;DHT22;333;48.800;9.530;2023-11-21T08:43:34;8.90;99.60
2260;DHT22;333;48.800;9.530;2023-11-21T08:46:05;8.90;99.60
2260;DHT22;333;48.800;9.530;2023-11-21T08:48:35;9.00;99.60
2260;DHT22;333;48.800;9.530;2023-11-21T08:51:02;9.10;99.60
2260;DHT22;333;48.800;9.530;2023-11-21T08:53:30;9.20;99.60
2260;DHT22;333;48.800;9.530;2023-11-21T08:55:57;9.30;99.60
2260;DHT22;333;48.800;9.530;2023-11-21T08:58:24;9.50;99.60
2260;DHT22;333;48.800;9.530;2023-11-21T09:00:53;9.50;99.60
2260;DHT22;333;48.800;9.530;2023-11-21T09:03:20;9.60;99.60
2260;DHT22;333;48.800;9.530;2023-11-21T09:05:47;9.60;99.60
2260;DHT22;333;48.800;9.530;2023-11-21T09:08:15;9.60;99.60
2260;DHT22;333;48.800;9.530;2023-11-21T09:10:43;9.60;99.60
2260;DHT22;333;48.800;9.530;2023-11-21T09:13:12;9.60;99.60
2260;DHT22;333;48.800;9.530;2023-11-21T09:15:42;9.60;99.60
2260;DHT22;333;48.800;9.530;2023-11-21T09:18:13;9.70;99.60
2260;DHT22;333;48.800;9.530;2023-11-21T09:20:40;9.70;99.60
2260;DHT22;333;48.800;9.530;2023-11-21T09:23:08;9.70;99.60
2260;DHT22;333;48.800;9.530;2023-11-21T09:25:35;9.80;99.60
2260;DHT22;333;48.800;9.530;2023-11-21T09:28:03;9.90;99.60
2260;DHT22;333;48.800;9.530;2023-11-21T09:30:33;9.90;99.60
2260;DHT22;333;48.800;9.530;2023-11-21T09:33:00;9.90;99.60
2260;DHT22;333;48.800;9.530;2023-11-21T09:35:29;9.80;99.60
2260;DHT22;333;48.800;9.530;2023-11-21T09:37:58;9.70;99.60
2260;DHT22;333;48.800;9.530;2023-11-21T09:40:27;9.70;99.60
2260;DHT22;333;48.800;9.530;2023-11-21T09:42:57;9.60;99.60
2260;DHT22;333;48.800;9.530;2023-11-21T09:45:26;9.70;99.60
2260;DHT22;333;48.800;9.530;2023-11-21T09:47:55;9.80;99.60
2260;DHT22;333;48.800;9.530;2023-11-21T09:50:23;9.90;99.60
2260;DHT22;333;48.800;9.530;2023-11-21T09:52:58;10.00;99.60
2260;DHT22;333;48.800;9.530;2023-11-21T09:55:32;10.10;99.60
2260;DHT22;333;48.800;9.530;2023-11-21T09:58:02;10.10;99.60
2260;DHT22;333;48.800;9.530;2023-11-21T10:00:31;10.20;99.60
2260;DHT22;333;48.800;9.530;2023-11-21T10:02:58;10.40;99.60
2260;DHT22;333;48.800;9.530;2023-11-21T10:05:25;10.30;99.60
2260;DHT22;333;48.800;9.530;2023-11-21T10:07:53;10.40;99.60
2260;DHT22;333;48.800;9.530;2023-11-21T10:10:25;10.40;99.60
2260;DHT22;333;48.800;9.530;2023-11-21T10:12:55;10.30;99.60
2260;DHT22;333;48.800;9.530;2023-11-21T10:15:23;10.50;99.60
2260;DHT22;333;48.800;9.530;2023-11-21T10:17:52;10.50;99.60
2260;DHT22;333;48.800;9.530;2023-11-21T10:20:20;10.40;99.60
2260;DHT22;333;48.800;9.530;2023-11-21T10:22:47;10.40;99.60
2260;DHT22;333;48.800;9.530;2023-11-21T10:25:14;10.40;99.60
2260;DHT22;333;48.800;9.530;2023-11-21T10:27:46;10.40;99.60
2260;DHT22;333;48.800;9.530;2023-11-21T10:30:13;10.60;99.60
2260;DHT22;333;48.800;9.530;2023-11-21T10:32:41;10.70;99.60
2260;DHT22;333;48.800;9.530;2023-11-21T10:35:10;10.80;99.60
2260;DHT22;333;48.800;9.530;2023-11-21T10:37:37;10.90;99.60
2260;DHT22;333;48.800;9.530;2023-11-21T10:40:06;11.00;99.60
2260;DHT22;333;48.800;9.530;2023-11-21T10:42:34;11.10;99.60
2260;DHT22;333;48.800;9.530;2023-11-21T10:45:04;11.10;99.60
2260;DHT22;333;48.800;9.530;2023-11-21T10:47:35;11.10;99.60
2260;DHT22;333;48.800;9.530;2023-11-21T10:50:05;11.10;99.60
2260;DHT22;333;48.800;9.530;2023-11-21T10:52:34;11.10;99.60
2260;DHT22;333;48.800;9.530;2023-11-21T10:55:01;11.00;99.60
2260;DHT22;333;48.800;9.530;2023-11-21T10:57:29;11.00;99.60
2260;DHT22;333;48.800;9.530;2023-11-21T10:59:57;11.00;99.60
2260;DHT22;333;48.800;9.530;2023-11-21T11:02:26;10.80;99.60
2260;DHT22;333;48.800;9.530;2023-11-21T11:04:54;10.60;99.60
2260;DHT22;333;48.800;9.530;2023-11-21T11:07:26;10.50;99.60
2260;DHT22;333;48.800;9.530;2023-11-21T11:09:53;10.30;99.60
2260;DHT22;333;48.800;9.530;2023-11-21T11:12:21;10.30;99.60
2260;DHT22;333;48.800;9.530;2023-11-21T11:14:48;10.20;99.60
2260;DHT22;333;48.800;9.530;2023-11-21T11:17:16;10.20;99.60
2260;DHT22;333;48.800;9.530;2023-11-21T11:19:47;10.20;99.60
2260;DHT22;333;48.800;9.530;2023-11-21T11:22:30;10.20;99.60
2260;DHT22;333;48.800;9.530;2023-11-21T11:28:04;9.90;99.60
2260;DHT22;333;48.800;9.530;2023-11-21T11:30:42;9.90;99.60
2260;DHT22;333;48.800;9.530;2023-11-21T11:33:21;9.90;99.60
2260;DHT22;333;48.800;9.530;2023-11-21T11:36:01;9.80;99.60
2260;DHT22;333;48.800;9.530;2023-11-21T11:38:31;9.70;99.60
2260;DHT22;333;48.800;9.530;2023-11-21T11:41:02;9.80;99.60
2260;DHT22;333;48.800;9.530;2023-11-21T11:43:30;9.80;99.60
2260;DHT22;333;48.800;9.530;2023-11-21T11:45:59;9.90;99.60
2260;DHT22;333;48.800;9.530;2023-11-21T11:48:29;10.00;99.60
2260;DHT22;333;48.800;9.530;2023-11-21T11:51:05;10.00;99.60
2260;DHT22;333;48.800;9.530;2023-11-21T11:53:39;10.10;99.60
2260;DHT22;333;48.800;9.530;2023-11-21T11:56:23;10.20;99.60
2260;DHT22;333;48.800;9.530;2023-11-21T11:58:52;10.30;99.60
2260;DHT22;333;48.800;9.530;2023-11-21T12:01:20;10.20;99.60
2260;DHT22;333;48.800;9.530;2023-11-21T12:06:51;10.40;99.60
2260;DHT22;333;48.800;9.530;2023-11-21T12:09:19;10.60;99.60
2260;DHT22;333;48.800;9.530;2023-11-21T12:11:50;10.70;99.60
2260;DHT22;333;48.800;9.530;2023-11-21T12:14:17;11.00;99.60
2260;DHT22;333;48.800;9.530;2023-11-21T12:16:45;11.10;99.60
2260;DHT22;333;48.800;9.530;2023-11-21T12:19:12;10.90;99.60
2260;DHT22;333;48.800;9.530;2023-11-21T12:21:40;10.90;99.60
2260;DHT22;333;48.800;9.530;2023-11-21T12:24:09;10.90;99.60
2260;DHT22;333;48.800;9.530;2023-11-21T12:26:39;10.70;99.60
2260;DHT22;333;48.800;9.530;2023-11-21T12:29:06;10.60;99.60
2260;DHT22;333;48.800;9.530;2023-11-21T12:31:34;10.50;99.60
2260;DHT22;333;48.800;9.530;2023-11-21T12:34:02;10.40;99.60
2260;DHT22;333;48.800;9.530;2023-11-21T12:36:29;10.40;99.60
2260;DHT22;333;48.800;9.530;2023-11-21T12:38:57;10.30;99.60
2260;DHT22;333;48.800;9.530;2023-11-21T12:41:25;10.30;99.60
2260;DHT22;333;48.800;9.530;2023-11-21T12:43:52;10.30;99.60
2260;DHT22;333;48.800;9.530;2023-11-21T12:46:19;10.40;99.60
2260;DHT22;333;48.800;9.530;2023-11-21T12:48:47;10.30;99.60
2260;DHT22;333;48.800;9.530;2023-11-21T12:51:14;10.30;99.60
2260;DHT22;333;48.800;9.530;2023-11-21T12:53:42;10.30;99.60
2260;DHT22;333;48.800;9.530;2023-11-21T12:56:10;10.40;99.60
2260;DHT22;333;48.800;9.530;2023-11-21T12:58:40;10.40;99.60
2260;DHT22;333;48.800;9.530;2023-11-21T13:01:13;10.40;99.60
2260;DHT22;333;48.800;9.530;2023-11-21T13:03:46;10.50;99.60
2260;DHT22;333;48.800;9.530;2023-11-21T13:06:17;10.50;99.60
2260;DHT22;333;48.800;9.530;2023-11-21T13:08:44;10.50;99.60
2260;DHT22;333;48.800;9.530;2023-11-21T13:11:12;10.50;99.60
2260;DHT22;333;48.800;9.530;2023-11-21T13:13:42;10.80;99.60
2260;DHT22;333;48.800;9.530;2023-11-21T13:16:10;10.90;99.60
2260;DHT22;333;48.800;9.530;2023-11-21T13:18:38;11.00;99.60
2260;DHT22;333;48.800;9.530;2023-11-21T13:21:08;11.10;99.60
2260;DHT22;333;48.800;9.530;2023-11-21T13:23:39;11.10;99.60
2260;DHT22;333;48.800;9.530;2023-11-21T13:26:07;11.00;99.60
2260;DHT22;333;48.800;9.530;2023-11-21T13:28:35;11.00;99.60
2260;DHT22;333;48.800;9.530;2023-11-21T13:31:05;10.90;99.60
2260;DHT22;333;48.800;9.530;2023-11-21T13:33:46;10.90;99.60
2260;DHT22;333;48.800;9.530;2023-11-21T13:36:17;11.00;99.60
2260;DHT22;333;48.800;9.530;2023-11-21T13:38:49;11.00;99.60
2260;DHT22;333;48.800;9.530;2023-11-21T13:41:16;10.80;99.60
2260;DHT22;333;48.800;9.530;2023-11-21T13:43:43;10.80;99.60
2260;DHT22;333;48.800;9.530;2023-11-21T13:46:17;10.60;99.60
2260;DHT22;333;48.800;9.530;2023-11-21T13:48:47;10.50;99.60
2260;DHT22;333;48.800;9.530;2023-11-21T13:51:17;10.40;99.60
2260;DHT22;333;48.800;9.530;2023-11-21T13:53:44;10.20;99.60
2260;DHT22;333;48.800;9.530;2023-11-21T13:56:13;9.90;99.60
2260;DHT22;333;48.800;9.530;2023-11-21T13:58:45;9.70;99.60
2260;DHT22;333;48.800;9.530;2023-11-21T14:01:18;9.60;99.60
2260;DHT22;333;48.800;9.530;2023-11-21T14:04:10;9.60;99.60
2260;DHT22;333;48.800;9.530;2023-11-21T14:06:46;9.70;99.60
2260;DHT22;333;48.800;9.530;2023-11-21T14:09:15;9.80;99.60
2260;DHT22;333;48.800;9.530;2023-11-21T14:11:49;9.80;99.60
2260;DHT22;333;48.800;9.530;2023-11-21T14:14:18;9.70;99.60
2260;DHT22;333;48.800;9.530;2023-11-21T14:16:46;9.80;99.60
2260;DHT22;333;48.800;9.530;2023-11-21T14:19:13;9.90;99.60
2260;DHT22;333;48.800;9.530;2023-11-21T14:21:43;9.80;99.60
2260;DHT22;333;48.800;9.530;2023-11-21T14:24:10;9.80;99.60
2260;DHT22;333;48.800;9.530;2023-11-21T14:26:40;9.70;99.60
2260;DHT22;333;48.800;9.530;2023-11-21T14:29:08;9.70;99.60
2260;DHT22;333;48.800;9.530;2023-11-21T14:31:38;9.60;99.60
2260;DHT22;333;48.800;9.530;2023-11-21T14:34:07;9.60;99.60
2260;DHT22;333;48.800;9.530;2023-11-21T14:36:35;9.60;99.60
2260;DHT22;333;48.800;9.530;2023-11-21T14:39:03;9.50;99.60
2260;DHT22;333;48.800;9.530;2023-11-21T14:41:32;9.50;99.60
2260;DHT22;333;48.800;9.530;2023-11-21T14:44:01;9.50;99.60
2260;DHT22;333;48.800;9.530;2023-11-21T14:46:30;9.50;99.60
2260;DHT22;333;48.800;9.530;2023-11-21T14:48:57;9.40;99.60
2260;DHT22;333;48.800;9.530;2023-11-21T14:51:34;9.40;99.60
2260;DHT22;333;48.800;9.530;2023-11-21T14:54:21;9.40;99.60
2260;DHT22;333;48.800;9.530;2023-11-21T14:57:04;9.30;99.60
2260;DHT22;333;48.800;9.530;2023-11-21T14:59:35;9.30;99.60
2260;DHT22;333;48.800;9.530;2023-11-21T15:02:01;9.30;99.60
2260;DHT22;333;48.800;9.530;2023-11-21T15:04:41;9.40;99.60
2260;DHT22;333;48.800;9.530;2023-11-21T15:07:09;9.40;99.60
2260;DHT22;333;48.800;9.530;2023-11-21T15:09:38;9.50;99.60
2260;DHT22;333;48.800;9.530;2023-11-21T15:12:07;9.40;99.60
2260;DHT22;333;48.800;9.530;2023-11-21T15:14:52;9.30;99.60
2260;DHT22;333;48.800;9.530;2023-11-21T15:17:21;9.30;99.60
2260;DHT22;333;48.800;9.530;2023-11-21T15:19:53;9.20;99.60
2260;DHT22;333;48.800;9.530;2023-11-21T15:22:21;9.30;99.60
2260;DHT22;333;48.800;9.530;2023-11-21T15:24:49;9.30;99.60
2260;DHT22;333;48.800;9.530;2023-11-21T15:27:16;9.20;99.60
2260;DHT22;333;48.800;9.530;2023-11-21T15:29:44;9.30;99.60
2260;DHT22;333;48.800;9.530;2023-11-21T15:32:12;9.30;99.60
2260;DHT22;333;48.800;9.530;2023-11-21T15:34:39;9.20;99.60
2260;DHT22;333;48.800;9.530;2023-11-21T15:37:07;9.20;99.60
2260;DHT22;333;48.800;9.530;2023-11-21T15:39:38;9.10;99.60
2260;DHT22;333;48.800;9.530;2023-11-21T15:42:05;9.10;99.60
2260;DHT22;333;48.800;9.530;2023-11-21T15:44:33;9.20;99.60
2260;DHT22;333;48.800;9.530;2023-11-21T15:47:00;9.20;99.60
2260;DHT22;333;48.800;9.530;2023-11-21T15:49:29;9.10;99.60
2260;DHT22;333;48.800;9.530;2023-11-21T15:52:00;9.20;99.60
2260;DHT22;333;48.800;9.530;2023-11-21T15:54:27;9.20;99.60
2260;DHT22;333;48.800;9.530;2023-11-21T15:56:56;9.10;99.60
2260;DHT22;333;48.800;9.530;2023-11-21T15:59:26;9.20;99.60
2260;DHT22;333;48.800;9.530;2023-11-21T16:01:56;9.20;99.60
2260;DHT22;333;48.800;9.530;2023-11-21T16:04:23;9.10;99.60
2260;DHT22;333;48.800;9.530;2023-11-21T16:06:52;9.20;99.60
2260;DHT22;333;48.800;9.530;2023-11-21T16:09:19;9.10;99.60
2260;DHT22;333;48.800;9.530;2023-11-21T16:11:48;9.10;99.60
2260;DHT22;333;48.800;9.530;2023-11-21T16:14:18;9.00;99.60
2260;DHT22;333;48.800;9.530;2023-11-21T16:16:46;9.00;99.60
2260;DHT22;333;48.800;9.530;2023-11-21T16:19:13;8.90;99.60
2260;DHT22;333;48.800;9.530;2023-11-21T16:21:40;8.90;99.60
2260;DHT22;333;48.800;9.530;2023-11-21T16:24:08;8.90;99.60
2260;DHT22;333;48.800;9.530;2023-11-21T16:26:35;8.90;99.60
2260;DHT22;333;48.800;9.530;2023-11-21T16:29:02;8.90;99.60
2260;DHT22;333;48.800;9.530;2023-11-21T16:31:31;8.80;99.60
2260;DHT22;333;48.800;9.530;2023-11-21T16:33:59;8.80;99.60
2260;DHT22;333;48.800;9.530;2023-11-21T16:36:30;8.80;99.60
2260;DHT22;333;48.800;9.530;2023-11-21T16:38:57;8.80;99.60
2260;DHT22;333;48.800;9.530;2023-11-21T16:41:24;8.90;99.60
2260;DHT22;333;48.800;9.530;2023-11-21T16:43:52;8.80;99.60
2260;DHT22;333;48.800;9.530;2023-11-21T16:46:19;8.80;99.60